MV Nord Discovery — 3EGP — position and weather

sailwx.info

Track history (hours):
 
Tides and Currents Weather Stations Pressure Air Temp Water Temp Dewpoint Dewpoint Depression Visibility Wind Speed Wind Dir Waves Ship Positions

MV Nord Discovery

Last reported at 2017-Feb-01 18:33 UTC. Time now 2017-Feb-27 04:42 UTC.
Position N 46°12' W 125°29'.
Warning: this ship's position is 25 days out of date.

Length 183 m; draft 12.7 m.

Type: Cargo ship. MMSI: 354855000.

Date/timePositionNaut miles runAvg speedWind from/ knotsBaromVisibWave heightAir tempDewpointWater temp
2017-Feb-01 18:33N 46°12' W 125°29'1211.9
2017-Feb-01 17:33N 46°12' W 125°11'1212.1
2017-Feb-01 16:33N 46°12' W 124°54'1312.8
2017-Feb-01 15:33N 46°11' W 124°36'1312.7
2017-Feb-01 14:33N 46°11' W 124°17'19 9.7
2017-Feb-01 12:33N 46°12' W 123°49'9 9.2
2017-Feb-01 11:33N 46°15' W 123°37'8 8.3
2017-Feb-01 10:33N 46°13' W 123°25'8 8.3
2017-Feb-01 09:34N 46°10' W 123°14'1110.6
2017-Feb-01 08:33N 46°07' W 122°60'9 9.5
2017-Feb-01 07:33N 45°60' W 122°51'1111.2
2017-Feb-01 06:34N 45°49' W 122°48'10 9.9
2017-Feb-01 05:33N 45°39' W 122°46'0 0.3
2017-Feb-01 04:34N 45°39' W 122°46'1 0.5
2017-Feb-01 03:31N 45°39' W 122°46'0 0.0
2017-Feb-01 02:31N 45°39' W 122°46'0 0.0
2017-Feb-01 01:31N 45°39' W 122°46'0 0.0
2017-Feb-01 00:31N 45°39' W 122°46'0 0.0
2017-Jan-31 23:31N 45°39' W 122°46'0 0.0
2017-Jan-31 22:31N 45°39' W 122°46'0 0.0
2017-Jan-31 21:31N 45°39' W 122°46'0 0.0
2017-Jan-31 20:31N 45°39' W 122°46'0 0.0
2017-Jan-31 19:31N 45°39' W 122°46'0 0.0
2017-Jan-31 18:31N 45°39' W 122°46'0 0.0
2017-Jan-31 17:31N 45°39' W 122°46'0 0.0
2017-Jan-31 16:31N 45°39' W 122°46'0 0.0
2017-Jan-31 15:31N 45°39' W 122°46'0 0.0
2017-Jan-31 14:31N 45°39' W 122°46'0 0.0
2017-Jan-31 13:31N 45°39' W 122°46'0 0.0
2017-Jan-31 12:31N 45°39' W 122°46'0 0.0
2017-Jan-31 11:31N 45°39' W 122°46'0 0.0
2017-Jan-31 10:31N 45°39' W 122°46'0 0.0
2017-Jan-31 09:31N 45°39' W 122°46'0 0.0
2017-Jan-31 08:31N 45°39' W 122°46'0 0.0
2017-Jan-31 07:31N 45°39' W 122°46'0 0.0
2017-Jan-31 06:31N 45°39' W 122°46'0 0.0
2017-Jan-31 05:28N 45°39' W 122°46'0 0.1
2017-Jan-31 04:31N 45°39' W 122°46'0 0.0
2017-Jan-31 03:31N 45°39' W 122°46'0 0.0
2017-Jan-31 02:31N 45°39' W 122°46'0 0.0
2017-Jan-31 01:28N 45°39' W 122°46'0 0.0
2017-Jan-31 00:28N 45°39' W 122°46'0 0.0
2017-Jan-30 23:28N 45°39' W 122°46'0 0.0
2017-Jan-30 22:31N 45°39' W 122°46'0 0.0
2017-Jan-30 21:31N 45°39' W 122°46'0 0.0
2017-Jan-30 20:31N 45°39' W 122°46'0 0.0
2017-Jan-30 19:31N 45°39' W 122°46'0 0.0
2017-Jan-30 18:31N 45°39' W 122°46'0 0.0
2017-Jan-30 17:31N 45°39' W 122°46'0 0.0
2017-Jan-30 16:31N 45°39' W 122°46'0 0.0
2017-Jan-30 15:25N 45°39' W 122°46'0 0.0
2017-Jan-30 14:31N 45°39' W 122°46'0 0.0
2017-Jan-30 13:31N 45°39' W 122°46'0 0.0
2017-Jan-30 12:31N 45°39' W 122°46'0 0.0
2017-Jan-30 11:31N 45°39' W 122°46'0 0.0
2017-Jan-30 10:31N 45°39' W 122°46'0 0.0
2017-Jan-30 09:28N 45°39' W 122°46'0 0.0
2017-Jan-30 08:31N 45°39' W 122°46'0 0.0
2017-Jan-30 07:28N 45°39' W 122°46'0 0.0
2017-Jan-30 06:31N 45°39' W 122°46'0 0.0
2017-Jan-30 05:31N 45°39' W 122°46'0 0.0
2017-Jan-30 04:31N 45°39' W 122°46'0 0.0
2017-Jan-30 03:31N 45°39' W 122°46'0 0.0
2017-Jan-30 02:31N 45°39' W 122°46'0 0.0
2017-Jan-30 01:31N 45°39' W 122°46'0 0.0
2017-Jan-30 00:31N 45°39' W 122°46'0 0.0
2017-Jan-29 23:31N 45°39' W 122°46'0 0.0
2017-Jan-29 22:31N 45°39' W 122°46'0 0.0
2017-Jan-29 21:31N 45°39' W 122°46'0 0.0
2017-Jan-29 20:31N 45°39' W 122°46'0 0.0
2017-Jan-29 19:31N 45°39' W 122°46'0 0.0
2017-Jan-29 18:31N 45°39' W 122°46'0 0.0
2017-Jan-29 17:28N 45°39' W 122°46'0 0.0
2017-Jan-29 16:31N 45°39' W 122°46'0 0.0
2017-Jan-29 15:31N 45°39' W 122°46'0 0.0
2017-Jan-29 14:31N 45°39' W 122°46'0 0.0
2017-Jan-29 13:31N 45°39' W 122°46'0 0.0
2017-Jan-29 12:31N 45°39' W 122°46'0 0.0
2017-Jan-29 11:31N 45°39' W 122°46'0 0.0
2017-Jan-29 10:31N 45°39' W 122°46'0 0.0
2017-Jan-29 09:31N 45°39' W 122°46'0 0.0
2017-Jan-29 08:25N 45°39' W 122°46'0 0.0
2017-Jan-29 07:31N 45°39' W 122°46'0 0.0
2017-Jan-29 06:31N 45°39' W 122°46'0 0.0
2017-Jan-29 05:31N 45°39' W 122°46'0 0.0
2017-Jan-29 04:31N 45°39' W 122°46'0 0.0
2017-Jan-29 03:28N 45°39' W 122°46'0 0.0
2017-Jan-29 02:31N 45°39' W 122°46'0 0.0
2017-Jan-29 01:31N 45°39' W 122°46'0 0.0
2017-Jan-29 00:31N 45°39' W 122°46'0 0.0
2017-Jan-28 23:31N 45°39' W 122°46'0 0.0
2017-Jan-28 22:31N 45°39' W 122°46'0 0.0
2017-Jan-28 21:31N 45°39' W 122°46'0 0.0
2017-Jan-28 20:31N 45°39' W 122°46'0 0.0
2017-Jan-28 19:31N 45°39' W 122°46'0 0.0
2017-Jan-28 18:31N 45°39' W 122°46'0 0.0
2017-Jan-28 17:31N 45°39' W 122°46'0 0.0
2017-Jan-28 16:28N 45°39' W 122°46'0 0.0
2017-Jan-28 15:31N 45°39' W 122°46'0 0.0
2017-Jan-28 14:31N 45°39' W 122°46'0 0.0
2017-Jan-28 13:31N 45°39' W 122°46'0 0.0
2017-Jan-28 12:31N 45°39' W 122°46'0 0.0
2017-Jan-28 11:31N 45°39' W 122°46'0 0.0
2017-Jan-28 10:31N 45°39' W 122°46'0 0.0
2017-Jan-28 09:31N 45°39' W 122°46'0 0.0
2017-Jan-28 08:31N 45°39' W 122°46'0 0.0
2017-Jan-28 07:31N 45°39' W 122°46'0 0.0
2017-Jan-28 06:31N 45°39' W 122°46'0 0.0
2017-Jan-28 05:28N 45°39' W 122°46'0 0.0
2017-Jan-28 04:31N 45°39' W 122°46'0 0.0
2017-Jan-28 03:31N 45°39' W 122°46'3 3.0
2017-Jan-28 02:33N 45°38' W 122°42'0 0.3
2017-Jan-28 01:31N 45°38' W 122°43'0 0.0
2017-Jan-28 00:31N 45°38' W 122°43'0 0.0
2017-Jan-27 23:31N 45°38' W 122°43'0 0.0
2017-Jan-27 22:31N 45°38' W 122°43'0 0.0
2017-Jan-27 21:31N 45°38' W 122°43'0 0.0
2017-Jan-27 20:31N 45°38' W 122°43'0 0.0
2017-Jan-27 19:31N 45°38' W 122°43'0 0.0
2017-Jan-27 18:31N 45°38' W 122°43'0 0.0
2017-Jan-27 17:31N 45°38' W 122°43'0 0.0
2017-Jan-27 16:28N 45°38' W 122°43'0 0.0
2017-Jan-27 15:31N 45°38' W 122°43'0 0.0
2017-Jan-27 14:31N 45°38' W 122°43'0 0.0
2017-Jan-27 13:31N 45°38' W 122°43'0 0.0
2017-Jan-27 12:31N 45°38' W 122°43'0 0.0
2017-Jan-27 11:31N 45°38' W 122°43'0 0.0
2017-Jan-27 10:31N 45°38' W 122°43'0 0.0
2017-Jan-27 09:31N 45°38' W 122°43'0 0.0
2017-Jan-27 08:31N 45°38' W 122°43'0 0.0
2017-Jan-27 07:31N 45°38' W 122°43'0 0.0
2017-Jan-27 06:31N 45°38' W 122°43'0 0.0
2017-Jan-27 05:31N 45°38' W 122°43'0 0.0
2017-Jan-27 04:31N 45°38' W 122°43'0 0.0
2017-Jan-27 03:31N 45°38' W 122°43'0 0.0
2017-Jan-27 02:31N 45°38' W 122°43'0 0.0
2017-Jan-27 01:31N 45°38' W 122°43'0 0.0
2017-Jan-27 00:28N 45°38' W 122°43'0 0.0
2017-Jan-26 23:31N 45°38' W 122°43'0 0.0
2017-Jan-26 22:16N 45°38' W 122°43'0 0.0
2017-Jan-26 21:31N 45°38' W 122°43'0 0.0
2017-Jan-26 20:31N 45°38' W 122°43'0 0.0
2017-Jan-26 19:31N 45°38' W 122°43'0 0.0
2017-Jan-26 18:31N 45°38' W 122°43'0 0.0
2017-Jan-26 17:28N 45°38' W 122°43'0 0.0
2017-Jan-26 16:31N 45°38' W 122°43'0 0.0
2017-Jan-26 15:31N 45°38' W 122°43'0 0.0
2017-Jan-26 14:31N 45°38' W 122°43'0 0.0
2017-Jan-26 13:28N 45°38' W 122°43'0 0.0
2017-Jan-26 12:31N 45°38' W 122°43'0 0.0
2017-Jan-26 11:31N 45°38' W 122°43'0 0.0
2017-Jan-26 10:31N 45°38' W 122°43'0 0.0
2017-Jan-26 09:31N 45°38' W 122°43'0 0.0
2017-Jan-26 08:25N 45°38' W 122°43'0 0.0
2017-Jan-26 07:31N 45°38' W 122°43'0 0.0
2017-Jan-26 06:22N 45°38' W 122°43'0 0.0
2017-Jan-26 05:31N 45°38' W 122°43'0 0.0
2017-Jan-26 04:31N 45°38' W 122°43'0 0.0
2017-Jan-26 03:31N 45°38' W 122°43'0 0.0
2017-Jan-26 02:31N 45°38' W 122°43'0 0.0
2017-Jan-26 01:31N 45°38' W 122°43'0 0.0
2017-Jan-26 00:31N 45°38' W 122°43'0 0.0
2017-Jan-25 23:31N 45°38' W 122°43'0 0.0
2017-Jan-25 22:31N 45°38' W 122°43'0 0.0
2017-Jan-25 21:31N 45°38' W 122°43'0 0.0
2017-Jan-25 20:31N 45°38' W 122°43'0 0.0
2017-Jan-25 19:31N 45°38' W 122°43'0 0.0
2017-Jan-25 18:25N 45°38' W 122°43'0 0.0
2017-Jan-25 17:31N 45°38' W 122°43'0 0.0
2017-Jan-25 16:25N 45°38' W 122°43'0 0.0
2017-Jan-25 15:31N 45°38' W 122°43'0 0.0
2017-Jan-25 14:31N 45°38' W 122°43'0 0.0
2017-Jan-25 13:31N 45°38' W 122°43'0 0.0
2017-Jan-25 12:31N 45°38' W 122°43'0 0.0
2017-Jan-25 11:31N 45°38' W 122°43'0 0.0
2017-Jan-25 10:31N 45°38' W 122°43'0 0.0
2017-Jan-25 09:31N 45°38' W 122°43'0 0.0
2017-Jan-25 08:31N 45°38' W 122°43'0 0.0
2017-Jan-25 07:31N 45°38' W 122°43'0 0.0
2017-Jan-25 06:31N 45°38' W 122°43'0 0.0
2017-Jan-25 05:31N 45°38' W 122°43'0 0.0
2017-Jan-25 04:31N 45°38' W 122°43'0 0.0
2017-Jan-25 03:31N 45°38' W 122°43'0 0.0
2017-Jan-25 02:31N 45°38' W 122°43'0 0.0
2017-Jan-25 01:31N 45°38' W 122°43'0 0.0
2017-Jan-25 00:31N 45°38' W 122°43'0 0.0
2017-Jan-24 23:31N 45°38' W 122°43'0 0.0
2017-Jan-24 22:31N 45°38' W 122°43'0 0.0
2017-Jan-24 21:31N 45°38' W 122°43'0 0.0
2017-Jan-24 20:31N 45°38' W 122°43'0 0.0
2017-Jan-24 19:31N 45°38' W 122°43'0 0.0
2017-Jan-24 18:31N 45°38' W 122°43'0 0.0
2017-Jan-24 17:31N 45°38' W 122°43'0 0.0
2017-Jan-24 16:28N 45°38' W 122°43'0 0.0
2017-Jan-24 15:31N 45°38' W 122°43'0 0.0
2017-Jan-24 14:31N 45°38' W 122°43'0 0.0
2017-Jan-24 13:28N 45°38' W 122°43'0 0.0
2017-Jan-24 12:31N 45°38' W 122°43'0 0.0
2017-Jan-24 11:31N 45°38' W 122°43'0 0.0
2017-Jan-24 10:31N 45°38' W 122°43'0 0.0
2017-Jan-24 09:31N 45°38' W 122°43'0 0.0
2017-Jan-24 08:31N 45°38' W 122°43'0 0.0
2017-Jan-24 07:31N 45°38' W 122°43'0 0.0
2017-Jan-24 06:31N 45°38' W 122°43'0 0.0
2017-Jan-24 05:28N 45°38' W 122°43'0 0.0
2017-Jan-24 04:31N 45°38' W 122°43'0 0.0
2017-Jan-24 03:31N 45°38' W 122°43'0 0.0
2017-Jan-24 02:31N 45°38' W 122°43'0 0.0
2017-Jan-24 01:31N 45°38' W 122°43'0 0.0
2017-Jan-24 00:31N 45°38' W 122°43'0 0.0
2017-Jan-23 23:31N 45°38' W 122°43'0 0.0
2017-Jan-23 22:31N 45°38' W 122°43'0 0.0
2017-Jan-23 21:31N 45°38' W 122°43'0 0.0
2017-Jan-23 20:31N 45°38' W 122°43'0 0.0
2017-Jan-23 19:31N 45°38' W 122°43'0 0.0
2017-Jan-23 18:31N 45°38' W 122°43'0 0.0
2017-Jan-23 17:28N 45°38' W 122°43'0 0.0
2017-Jan-23 16:31N 45°38' W 122°43'0 0.0
2017-Jan-23 15:31N 45°38' W 122°43'0 0.0
2017-Jan-23 14:31N 45°38' W 122°43'0 0.0
2017-Jan-23 13:31N 45°38' W 122°43'0 0.0
2017-Jan-23 12:31N 45°38' W 122°43'0 0.0
2017-Jan-23 11:31N 45°38' W 122°43'0 0.0
2017-Jan-23 10:31N 45°38' W 122°43'0 0.0
2017-Jan-23 09:31N 45°38' W 122°43'0 0.0
2017-Jan-23 08:31N 45°38' W 122°43'0 0.0
2017-Jan-23 07:31N 45°38' W 122°43'0 0.0
2017-Jan-23 06:31N 45°38' W 122°43'0 0.0
2017-Jan-23 05:31N 45°38' W 122°43'0 0.0
2017-Jan-23 04:31N 45°38' W 122°43'0 0.0
2017-Jan-23 03:31N 45°38' W 122°43'0 0.0
2017-Jan-23 02:31N 45°38' W 122°43'0 0.0
2017-Jan-23 01:28N 45°38' W 122°43'0 0.0
2017-Jan-23 00:28N 45°38' W 122°43'0 0.0
2017-Jan-22 23:31N 45°38' W 122°43'0 0.0
2017-Jan-22 22:31N 45°38' W 122°43'0 0.0
2017-Jan-22 21:31N 45°38' W 122°43'0 0.0
2017-Jan-22 20:31N 45°38' W 122°43'0 0.0
2017-Jan-22 19:31N 45°38' W 122°43'  
Track history (hours):
 
Tides and Currents Weather Stations Pressure Air Temp Water Temp Dewpoint Dewpoint Depression Visibility Wind Speed Wind Dir Waves Ship Positions

MV Nord Discovery

Last reported at 2017-Feb-01 18:33 UTC. Time now 2017-Feb-27 04:42 UTC.
Position N 46°12' W 125°29'.
Warning: this ship's position is 25 days out of date.

Length 183 m; draft 12.7 m.

Type: Cargo ship. MMSI: 354855000.

Date/timePositionNaut miles runAvg speedWind from/ knotsBaromVisibWave heightAir tempDewpointWater temp
2017-Feb-01 18:33N 46°12' W 125°29'1211.9
2017-Feb-01 17:33N 46°12' W 125°11'1212.1
2017-Feb-01 16:33N 46°12' W 124°54'1312.8
2017-Feb-01 15:33N 46°11' W 124°36'1312.7
2017-Feb-01 14:33N 46°11' W 124°17'19 9.7
2017-Feb-01 12:33N 46°12' W 123°49'9 9.2
2017-Feb-01 11:33N 46°15' W 123°37'8 8.3
2017-Feb-01 10:33N 46°13' W 123°25'8 8.3
2017-Feb-01 09:34N 46°10' W 123°14'1110.6
2017-Feb-01 08:33N 46°07' W 122°60'9 9.5
2017-Feb-01 07:33N 45°60' W 122°51'1111.2
2017-Feb-01 06:34N 45°49' W 122°48'10 9.9
2017-Feb-01 05:33N 45°39' W 122°46'0 0.3
2017-Feb-01 04:34N 45°39' W 122°46'1 0.5
2017-Feb-01 03:31N 45°39' W 122°46'0 0.0
2017-Feb-01 02:31N 45°39' W 122°46'0 0.0
2017-Feb-01 01:31N 45°39' W 122°46'0 0.0
2017-Feb-01 00:31N 45°39' W 122°46'0 0.0
2017-Jan-31 23:31N 45°39' W 122°46'0 0.0
2017-Jan-31 22:31N 45°39' W 122°46'0 0.0
2017-Jan-31 21:31N 45°39' W 122°46'0 0.0
2017-Jan-31 20:31N 45°39' W 122°46'0 0.0
2017-Jan-31 19:31N 45°39' W 122°46'0 0.0
2017-Jan-31 18:31N 45°39' W 122°46'0 0.0
2017-Jan-31 17:31N 45°39' W 122°46'0 0.0
2017-Jan-31 16:31N 45°39' W 122°46'0 0.0
2017-Jan-31 15:31N 45°39' W 122°46'0 0.0
2017-Jan-31 14:31N 45°39' W 122°46'0 0.0
2017-Jan-31 13:31N 45°39' W 122°46'0 0.0
2017-Jan-31 12:31N 45°39' W 122°46'0 0.0
2017-Jan-31 11:31N 45°39' W 122°46'0 0.0
2017-Jan-31 10:31N 45°39' W 122°46'0 0.0
2017-Jan-31 09:31N 45°39' W 122°46'0 0.0
2017-Jan-31 08:31N 45°39' W 122°46'0 0.0
2017-Jan-31 07:31N 45°39' W 122°46'0 0.0
2017-Jan-31 06:31N 45°39' W 122°46'0 0.0
2017-Jan-31 05:28N 45°39' W 122°46'0 0.1
2017-Jan-31 04:31N 45°39' W 122°46'0 0.0
2017-Jan-31 03:31N 45°39' W 122°46'0 0.0
2017-Jan-31 02:31N 45°39' W 122°46'0 0.0
2017-Jan-31 01:28N 45°39' W 122°46'0 0.0
2017-Jan-31 00:28N 45°39' W 122°46'0 0.0
2017-Jan-30 23:28N 45°39' W 122°46'0 0.0
2017-Jan-30 22:31N 45°39' W 122°46'0 0.0
2017-Jan-30 21:31N 45°39' W 122°46'0 0.0
2017-Jan-30 20:31N 45°39' W 122°46'0 0.0
2017-Jan-30 19:31N 45°39' W 122°46'0 0.0
2017-Jan-30 18:31N 45°39' W 122°46'0 0.0
2017-Jan-30 17:31N 45°39' W 122°46'0 0.0
2017-Jan-30 16:31N 45°39' W 122°46'0 0.0
2017-Jan-30 15:25N 45°39' W 122°46'0 0.0
2017-Jan-30 14:31N 45°39' W 122°46'0 0.0
2017-Jan-30 13:31N 45°39' W 122°46'0 0.0
2017-Jan-30 12:31N 45°39' W 122°46'0 0.0
2017-Jan-30 11:31N 45°39' W 122°46'0 0.0
2017-Jan-30 10:31N 45°39' W 122°46'0 0.0
2017-Jan-30 09:28N 45°39' W 122°46'0 0.0
2017-Jan-30 08:31N 45°39' W 122°46'0 0.0
2017-Jan-30 07:28N 45°39' W 122°46'0 0.0
2017-Jan-30 06:31N 45°39' W 122°46'0 0.0
2017-Jan-30 05:31N 45°39' W 122°46'0 0.0
2017-Jan-30 04:31N 45°39' W 122°46'0 0.0
2017-Jan-30 03:31N 45°39' W 122°46'0 0.0
2017-Jan-30 02:31N 45°39' W 122°46'0 0.0
2017-Jan-30 01:31N 45°39' W 122°46'0 0.0
2017-Jan-30 00:31N 45°39' W 122°46'0 0.0
2017-Jan-29 23:31N 45°39' W 122°46'0 0.0
2017-Jan-29 22:31N 45°39' W 122°46'0 0.0
2017-Jan-29 21:31N 45°39' W 122°46'0 0.0
2017-Jan-29 20:31N 45°39' W 122°46'0 0.0
2017-Jan-29 19:31N 45°39' W 122°46'0 0.0
2017-Jan-29 18:31N 45°39' W 122°46'0 0.0
2017-Jan-29 17:28N 45°39' W 122°46'0 0.0
2017-Jan-29 16:31N 45°39' W 122°46'0 0.0
2017-Jan-29 15:31N 45°39' W 122°46'0 0.0
2017-Jan-29 14:31N 45°39' W 122°46'0 0.0
2017-Jan-29 13:31N 45°39' W 122°46'0 0.0
2017-Jan-29 12:31N 45°39' W 122°46'0 0.0
2017-Jan-29 11:31N 45°39' W 122°46'0 0.0
2017-Jan-29 10:31N 45°39' W 122°46'0 0.0
2017-Jan-29 09:31N 45°39' W 122°46'0 0.0
2017-Jan-29 08:25N 45°39' W 122°46'0 0.0
2017-Jan-29 07:31N 45°39' W 122°46'0 0.0
2017-Jan-29 06:31N 45°39' W 122°46'0 0.0
2017-Jan-29 05:31N 45°39' W 122°46'0 0.0
2017-Jan-29 04:31N 45°39' W 122°46'0 0.0
2017-Jan-29 03:28N 45°39' W 122°46'0 0.0
2017-Jan-29 02:31N 45°39' W 122°46'0 0.0
2017-Jan-29 01:31N 45°39' W 122°46'0 0.0
2017-Jan-29 00:31N 45°39' W 122°46'0 0.0
2017-Jan-28 23:31N 45°39' W 122°46'0 0.0
2017-Jan-28 22:31N 45°39' W 122°46'0 0.0
2017-Jan-28 21:31N 45°39' W 122°46'0 0.0
2017-Jan-28 20:31N 45°39' W 122°46'0 0.0
2017-Jan-28 19:31N 45°39' W 122°46'0 0.0
2017-Jan-28 18:31N 45°39' W 122°46'0 0.0
2017-Jan-28 17:31N 45°39' W 122°46'0 0.0
2017-Jan-28 16:28N 45°39' W 122°46'0 0.0
2017-Jan-28 15:31N 45°39' W 122°46'0 0.0
2017-Jan-28 14:31N 45°39' W 122°46'0 0.0
2017-Jan-28 13:31N 45°39' W 122°46'0 0.0
2017-Jan-28 12:31N 45°39' W 122°46'0 0.0
2017-Jan-28 11:31N 45°39' W 122°46'0 0.0
2017-Jan-28 10:31N 45°39' W 122°46'0 0.0
2017-Jan-28 09:31N 45°39' W 122°46'0 0.0
2017-Jan-28 08:31N 45°39' W 122°46'0 0.0
2017-Jan-28 07:31N 45°39' W 122°46'0 0.0
2017-Jan-28 06:31N 45°39' W 122°46'0 0.0
2017-Jan-28 05:28N 45°39' W 122°46'0 0.0
2017-Jan-28 04:31N 45°39' W 122°46'0 0.0
2017-Jan-28 03:31N 45°39' W 122°46'3 3.0
2017-Jan-28 02:33N 45°38' W 122°42'0 0.3
2017-Jan-28 01:31N 45°38' W 122°43'0 0.0
2017-Jan-28 00:31N 45°38' W 122°43'0 0.0
2017-Jan-27 23:31N 45°38' W 122°43'0 0.0
2017-Jan-27 22:31N 45°38' W 122°43'0 0.0
2017-Jan-27 21:31N 45°38' W 122°43'0 0.0
2017-Jan-27 20:31N 45°38' W 122°43'0 0.0
2017-Jan-27 19:31N 45°38' W 122°43'0 0.0
2017-Jan-27 18:31N 45°38' W 122°43'0 0.0
2017-Jan-27 17:31N 45°38' W 122°43'0 0.0
2017-Jan-27 16:28N 45°38' W 122°43'0 0.0
2017-Jan-27 15:31N 45°38' W 122°43'0 0.0
2017-Jan-27 14:31N 45°38' W 122°43'0 0.0
2017-Jan-27 13:31N 45°38' W 122°43'0 0.0
2017-Jan-27 12:31N 45°38' W 122°43'0 0.0
2017-Jan-27 11:31N 45°38' W 122°43'0 0.0
2017-Jan-27 10:31N 45°38' W 122°43'0 0.0
2017-Jan-27 09:31N 45°38' W 122°43'0 0.0
2017-Jan-27 08:31N 45°38' W 122°43'0 0.0
2017-Jan-27 07:31N 45°38' W 122°43'0 0.0
2017-Jan-27 06:31N 45°38' W 122°43'0 0.0
2017-Jan-27 05:31N 45°38' W 122°43'0 0.0
2017-Jan-27 04:31N 45°38' W 122°43'0 0.0
2017-Jan-27 03:31N 45°38' W 122°43'0 0.0
2017-Jan-27 02:31N 45°38' W 122°43'0 0.0
2017-Jan-27 01:31N 45°38' W 122°43'0 0.0
2017-Jan-27 00:28N 45°38' W 122°43'0 0.0
2017-Jan-26 23:31N 45°38' W 122°43'0 0.0
2017-Jan-26 22:16N 45°38' W 122°43'0 0.0
2017-Jan-26 21:31N 45°38' W 122°43'0 0.0
2017-Jan-26 20:31N 45°38' W 122°43'0 0.0
2017-Jan-26 19:31N 45°38' W 122°43'0 0.0
2017-Jan-26 18:31N 45°38' W 122°43'0 0.0
2017-Jan-26 17:28N 45°38' W 122°43'0 0.0
2017-Jan-26 16:31N 45°38' W 122°43'0 0.0
2017-Jan-26 15:31N 45°38' W 122°43'0 0.0
2017-Jan-26 14:31N 45°38' W 122°43'0 0.0
2017-Jan-26 13:28N 45°38' W 122°43'0 0.0
2017-Jan-26 12:31N 45°38' W 122°43'0 0.0
2017-Jan-26 11:31N 45°38' W 122°43'0 0.0
2017-Jan-26 10:31N 45°38' W 122°43'0 0.0
2017-Jan-26 09:31N 45°38' W 122°43'0 0.0
2017-Jan-26 08:25N 45°38' W 122°43'0 0.0
2017-Jan-26 07:31N 45°38' W 122°43'0 0.0
2017-Jan-26 06:22N 45°38' W 122°43'0 0.0
2017-Jan-26 05:31N 45°38' W 122°43'0 0.0
2017-Jan-26 04:31N 45°38' W 122°43'0 0.0
2017-Jan-26 03:31N 45°38' W 122°43'0 0.0
2017-Jan-26 02:31N 45°38' W 122°43'0 0.0
2017-Jan-26 01:31N 45°38' W 122°43'0 0.0
2017-Jan-26 00:31N 45°38' W 122°43'0 0.0
2017-Jan-25 23:31N 45°38' W 122°43'0 0.0
2017-Jan-25 22:31N 45°38' W 122°43'0 0.0
2017-Jan-25 21:31N 45°38' W 122°43'0 0.0
2017-Jan-25 20:31N 45°38' W 122°43'0 0.0
2017-Jan-25 19:31N 45°38' W 122°43'0 0.0
2017-Jan-25 18:25N 45°38' W 122°43'0 0.0
2017-Jan-25 17:31N 45°38' W 122°43'0 0.0
2017-Jan-25 16:25N 45°38' W 122°43'0 0.0
2017-Jan-25 15:31N 45°38' W 122°43'0 0.0
2017-Jan-25 14:31N 45°38' W 122°43'0 0.0
2017-Jan-25 13:31N 45°38' W 122°43'0 0.0
2017-Jan-25 12:31N 45°38' W 122°43'0 0.0
2017-Jan-25 11:31N 45°38' W 122°43'0 0.0
2017-Jan-25 10:31N 45°38' W 122°43'0 0.0
2017-Jan-25 09:31N 45°38' W 122°43'0 0.0
2017-Jan-25 08:31N 45°38' W 122°43'0 0.0
2017-Jan-25 07:31N 45°38' W 122°43'0 0.0
2017-Jan-25 06:31N 45°38' W 122°43'0 0.0
2017-Jan-25 05:31N 45°38' W 122°43'0 0.0
2017-Jan-25 04:31N 45°38' W 122°43'0 0.0
2017-Jan-25 03:31N 45°38' W 122°43'0 0.0
2017-Jan-25 02:31N 45°38' W 122°43'0 0.0
2017-Jan-25 01:31N 45°38' W 122°43'0 0.0
2017-Jan-25 00:31N 45°38' W 122°43'0 0.0
2017-Jan-24 23:31N 45°38' W 122°43'0 0.0
2017-Jan-24 22:31N 45°38' W 122°43'0 0.0
2017-Jan-24 21:31N 45°38' W 122°43'0 0.0
2017-Jan-24 20:31N 45°38' W 122°43'0 0.0
2017-Jan-24 19:31N 45°38' W 122°43'0 0.0
2017-Jan-24 18:31N 45°38' W 122°43'0 0.0
2017-Jan-24 17:31N 45°38' W 122°43'0 0.0
2017-Jan-24 16:28N 45°38' W 122°43'0 0.0
2017-Jan-24 15:31N 45°38' W 122°43'0 0.0
2017-Jan-24 14:31N 45°38' W 122°43'0 0.0
2017-Jan-24 13:28N 45°38' W 122°43'0 0.0
2017-Jan-24 12:31N 45°38' W 122°43'0 0.0
2017-Jan-24 11:31N 45°38' W 122°43'0 0.0
2017-Jan-24 10:31N 45°38' W 122°43'0 0.0
2017-Jan-24 09:31N 45°38' W 122°43'0 0.0
2017-Jan-24 08:31N 45°38' W 122°43'0 0.0
2017-Jan-24 07:31N 45°38' W 122°43'0 0.0
2017-Jan-24 06:31N 45°38' W 122°43'0 0.0
2017-Jan-24 05:28N 45°38' W 122°43'0 0.0
2017-Jan-24 04:31N 45°38' W 122°43'0 0.0
2017-Jan-24 03:31N 45°38' W 122°43'0 0.0
2017-Jan-24 02:31N 45°38' W 122°43'0 0.0
2017-Jan-24 01:31N 45°38' W 122°43'0 0.0
2017-Jan-24 00:31N 45°38' W 122°43'0 0.0
2017-Jan-23 23:31N 45°38' W 122°43'0 0.0
2017-Jan-23 22:31N 45°38' W 122°43'0 0.0
2017-Jan-23 21:31N 45°38' W 122°43'0 0.0
2017-Jan-23 20:31N 45°38' W 122°43'0 0.0
2017-Jan-23 19:31N 45°38' W 122°43'0 0.0
2017-Jan-23 18:31N 45°38' W 122°43'0 0.0
2017-Jan-23 17:28N 45°38' W 122°43'0 0.0
2017-Jan-23 16:31N 45°38' W 122°43'0 0.0
2017-Jan-23 15:31N 45°38' W 122°43'0 0.0
2017-Jan-23 14:31N 45°38' W 122°43'0 0.0
2017-Jan-23 13:31N 45°38' W 122°43'0 0.0
2017-Jan-23 12:31N 45°38' W 122°43'0 0.0
2017-Jan-23 11:31N 45°38' W 122°43'0 0.0
2017-Jan-23 10:31N 45°38' W 122°43'0 0.0
2017-Jan-23 09:31N 45°38' W 122°43'0 0.0
2017-Jan-23 08:31N 45°38' W 122°43'0 0.0
2017-Jan-23 07:31N 45°38' W 122°43'0 0.0
2017-Jan-23 06:31N 45°38' W 122°43'0 0.0
2017-Jan-23 05:31N 45°38' W 122°43'0 0.0
2017-Jan-23 04:31N 45°38' W 122°43'0 0.0
2017-Jan-23 03:31N 45°38' W 122°43'0 0.0
2017-Jan-23 02:31N 45°38' W 122°43'0 0.0
2017-Jan-23 01:28N 45°38' W 122°43'0 0.0
2017-Jan-23 00:28N 45°38' W 122°43'0 0.0
2017-Jan-22 23:31N 45°38' W 122°43'0 0.0
2017-Jan-22 22:31N 45°38' W 122°43'0 0.0
2017-Jan-22 21:31N 45°38' W 122°43'0 0.0
2017-Jan-22 20:31N 45°38' W 122°43'0 0.0
2017-Jan-22 19:31N 45°38' W 122°43'  

Dump ship's entire track history